createdAt,value
2019-02-19T00:00:01.716Z,346.50
2019-02-19T00:02:29.134Z,336.07
2019-02-19T00:04:56.530Z,337.03
2019-02-19T00:07:25.387Z,341.03
2019-02-19T00:09:52.869Z,382.83
2019-02-19T00:12:20.336Z,393.07
2019-02-19T00:14:47.872Z,384.43
2019-02-19T00:17:15.416Z,393.27
2019-02-19T00:19:42.895Z,405.27
2019-02-19T00:22:10.422Z,345.30
2019-02-19T00:24:40.576Z,348.37
2019-02-19T00:27:08.090Z,344.83
2019-02-19T00:29:35.742Z,374.77
2019-02-19T00:32:03.206Z,399.40
2019-02-19T00:34:30.771Z,355.03
2019-02-19T00:36:58.338Z,315.27
2019-02-19T00:39:25.836Z,280.50
2019-02-19T00:41:53.351Z,274.37
2019-02-19T00:44:20.974Z,252.37
2019-02-19T00:46:48.396Z,245.40
2019-02-19T00:49:15.954Z,228.13
2019-02-19T00:51:43.364Z,234.87
2019-02-19T00:54:10.825Z,229.83
2019-02-19T00:56:38.306Z,208.97
2019-02-19T00:59:05.746Z,203.47
2019-02-19T01:01:33.244Z,208.70
2019-02-19T01:04:00.855Z,214.67
2019-02-19T01:06:28.332Z,210.30
2019-02-19T01:08:55.822Z,223.37
2019-02-19T01:11:23.248Z,202.17
2019-02-19T01:13:50.888Z,221.40
2019-02-19T01:16:18.426Z,214.47
2019-02-19T01:18:46.002Z,214.30
2019-02-19T01:21:16.128Z,200.60
2019-02-19T01:23:43.660Z,189.97
2019-02-19T01:26:11.041Z,202.47
2019-02-19T01:28:38.581Z,205.47
2019-02-19T01:31:06.164Z,190.20
2019-02-19T01:33:35.238Z,182.17
2019-02-19T01:36:02.764Z,174.00
2019-02-19T01:38:30.186Z,164.93
2019-02-19T01:40:57.704Z,178.17
2019-02-19T01:43:26.930Z,197.60
2019-02-19T01:45:57.026Z,206.70
2019-02-19T01:48:24.640Z,208.50
2019-02-19T01:50:59.279Z,224.40
2019-02-19T01:53:26.782Z,229.40
2019-02-19T01:55:54.240Z,212.30
2019-02-19T01:58:21.732Z,224.30
2019-02-19T02:00:49.180Z,196.53
2019-02-19T02:03:16.758Z,170.97
2019-02-19T02:05:44.171Z,173.83
2019-02-19T02:08:11.571Z,181.17
2019-02-19T02:10:39.021Z,175.57
2019-02-19T02:13:08.076Z,183.00
2019-02-19T02:15:42.449Z,180.67
2019-02-19T02:18:04.595Z,176.23
2019-02-19T02:20:32.130Z,164.43
2019-02-19T02:22:59.624Z,186.47
2019-02-19T02:25:27.595Z,212.03
2019-02-19T02:27:55.262Z,195.77
2019-02-19T02:30:25.281Z,173.17
2019-02-19T02:32:52.722Z,177.00
2019-02-19T02:35:20.160Z,178.30
2019-02-19T02:37:47.560Z,160.63
2019-02-19T02:40:15.074Z,129.93
2019-02-19T02:42:42.486Z,123.47
2019-02-19T02:45:10.069Z,117.67
2019-02-19T02:47:37.423Z,111.33
2019-02-19T02:50:04.971Z,96.00
2019-02-19T02:52:32.684Z,93.83
2019-02-19T02:55:00.310Z,105.07
2019-02-19T02:57:27.787Z,102.53
2019-02-19T02:59:56.977Z,117.23
2019-02-19T03:02:24.456Z,144.90
2019-02-19T03:04:52.042Z,116.70
2019-02-19T03:07:21.036Z,127.17
2019-02-19T03:09:48.498Z,125.70
2019-02-19T03:12:16.179Z,121.60
2019-02-19T03:14:43.657Z,131.10
2019-02-19T03:17:11.213Z,126.03
2019-02-19T03:19:38.733Z,141.13
2019-02-19T03:22:06.502Z,149.87
2019-02-19T03:24:33.900Z,158.83
2019-02-19T03:27:02.435Z,167.33
2019-02-19T03:29:29.916Z,159.83
2019-02-19T03:31:57.368Z,153.97
2019-02-19T03:34:24.899Z,150.67
2019-02-19T03:36:52.394Z,159.77
2019-02-19T03:39:20.327Z,175.90
2019-02-19T03:41:47.819Z,167.23
2019-02-19T03:44:15.265Z,150.87
2019-02-19T03:46:43.125Z,151.20
2019-02-19T03:49:10.682Z,133.07
2019-02-19T03:51:38.245Z,139.53
2019-02-19T03:54:05.736Z,158.33
2019-02-19T03:56:33.275Z,166.57
2019-02-19T03:59:00.781Z,176.90
2019-02-19T04:01:28.166Z,175.60
2019-02-19T04:03:55.651Z,176.33
2019-02-19T04:06:23.161Z,158.73
2019-02-19T04:08:50.611Z,174.93
2019-02-19T04:11:18.096Z,172.03
2019-02-19T04:13:45.541Z,152.63
2019-02-19T04:16:20.991Z,160.67
2019-02-19T04:18:42.765Z,139.23
2019-02-19T04:21:10.284Z,137.80
2019-02-19T04:23:38.257Z,137.67
2019-02-19T04:26:05.707Z,115.47
2019-02-19T04:28:33.270Z,129.63
2019-02-19T04:31:00.836Z,132.57
2019-02-19T04:33:28.378Z,122.47
2019-02-19T04:35:55.780Z,159.90
2019-02-19T04:38:23.181Z,144.97
2019-02-19T04:40:50.725Z,146.00
2019-02-19T04:43:18.218Z,141.13
2019-02-19T04:45:45.783Z,150.43
2019-02-19T04:48:13.428Z,154.57
2019-02-19T04:50:40.964Z,132.47
2019-02-19T04:53:08.345Z,143.73
2019-02-19T04:55:35.909Z,142.93
2019-02-19T04:58:03.496Z,143.03
2019-02-19T05:00:31.010Z,129.27
2019-02-19T05:02:58.467Z,144.57
2019-02-19T05:05:26.389Z,125.80
2019-02-19T05:07:53.850Z,140.37
2019-02-19T05:10:21.267Z,127.17
2019-02-19T05:12:48.703Z,163.77
2019-02-19T05:15:16.270Z,154.53
2019-02-19T05:17:43.784Z,162.07
2019-02-19T05:20:11.301Z,131.63
2019-02-19T05:22:38.669Z,154.63
2019-02-19T05:25:07.138Z,178.67
2019-02-19T05:27:34.830Z,196.63
2019-02-19T05:30:02.967Z,176.13
2019-02-19T05:32:30.361Z,170.30
2019-02-19T05:34:57.860Z,141.77
2019-02-19T05:37:25.360Z,156.67
2019-02-19T05:39:53.230Z,153.10
2019-02-19T05:42:20.820Z,144.23
2019-02-19T05:44:48.450Z,146.93
2019-02-19T05:47:15.980Z,164.20
2019-02-19T05:49:43.501Z,176.70
2019-02-19T05:52:12.383Z,169.43
2019-02-19T05:54:39.835Z,181.90
2019-02-19T05:57:07.329Z,180.03
2019-02-19T05:59:34.780Z,182.60
2019-02-19T06:02:02.254Z,179.90
2019-02-19T06:04:31.442Z,173.37
2019-02-19T06:06:58.904Z,177.07
2019-02-19T06:09:32.456Z,196.50
2019-02-19T06:11:59.890Z,195.57
2019-02-19T06:14:29.078Z,182.33
2019-02-19T06:16:58.480Z,171.23
2019-02-19T06:19:28.592Z,160.70
2019-02-19T06:21:56.180Z,159.50
2019-02-19T06:24:23.830Z,139.00
2019-02-19T06:26:52.735Z,123.30
2019-02-19T06:29:22.025Z,108.07
2019-02-19T06:31:52.634Z,95.03
2019-02-19T06:37:29.652Z,87.93
2019-02-19T06:43:19.042Z,88.20
2019-02-19T07:56:32.682Z,51.63
2019-02-19T07:59:20.559Z,53.70
2019-02-19T08:01:48.351Z,46.33
2019-02-19T08:04:15.920Z,45.53
2019-02-19T08:06:43.339Z,47.87
2019-02-19T08:09:12.414Z,46.37
2019-02-19T08:11:40.605Z,43.60
2019-02-19T08:14:08.179Z,47.80
2019-02-19T08:16:36.154Z,45.00
2019-02-19T08:19:03.687Z,41.87
2019-02-19T08:21:31.217Z,46.77
2019-02-19T08:23:59.725Z,52.53
2019-02-19T08:26:27.293Z,43.07
2019-02-19T08:29:04.027Z,52.47
2019-02-19T08:31:24.121Z,44.97
2019-02-19T08:33:51.581Z,40.17
2019-02-19T08:36:19.071Z,42.70
2019-02-19T08:38:47.117Z,43.13
2019-02-19T08:41:14.706Z,43.07
2019-02-19T08:44:25.050Z,43.47
2019-02-19T08:46:52.549Z,43.97
2019-02-19T08:49:19.987Z,39.40
2019-02-19T08:51:55.744Z,45.10
2019-02-19T08:54:16.809Z,44.13
2019-02-19T08:56:44.508Z,43.90
2019-02-19T08:59:12.348Z,41.17
2019-02-19T09:01:39.915Z,43.40
2019-02-19T09:06:58.025Z,46.33
2019-02-19T09:09:25.737Z,47.03
2019-02-19T09:15:05.422Z,35.27
2019-02-19T09:17:32.949Z,38.63
2019-02-19T09:20:00.487Z,39.03
2019-02-19T09:22:28.561Z,37.07
2019-02-19T09:24:56.113Z,41.70
2019-02-19T09:27:23.593Z,40.53
2019-02-19T09:29:51.153Z,38.37
2019-02-19T09:32:20.221Z,40.20
2019-02-19T09:34:47.873Z,41.67
2019-02-19T09:37:15.444Z,38.57
2019-02-19T09:39:42.926Z,38.63
2019-02-19T09:42:10.567Z,41.87
2019-02-19T09:44:39.163Z,38.07
2019-02-19T09:47:08.266Z,44.50
2019-02-19T09:49:35.829Z,46.30
2019-02-19T09:52:03.433Z,42.03
2019-02-19T09:54:31.274Z,45.57
2019-02-19T09:56:59.857Z,46.70
2019-02-19T09:59:27.298Z,47.30
2019-02-19T10:01:56.398Z,44.97
2019-02-19T10:04:23.912Z,44.10
2019-02-19T10:06:51.322Z,47.93
2019-02-19T10:09:18.822Z,50.43
2019-02-19T10:11:47.494Z,42.20
2019-02-19T10:14:15.114Z,53.13
2019-02-19T10:16:42.632Z,46.50
2019-02-19T10:19:10.118Z,44.40
2019-02-19T10:21:38.187Z,44.87
2019-02-19T10:24:05.701Z,45.23
2019-02-19T10:26:33.203Z,49.47
2019-02-19T10:29:00.932Z,47.90
2019-02-19T10:31:28.415Z,41.47
2019-02-19T10:33:55.946Z,42.67
2019-02-19T10:36:23.558Z,48.13
2019-02-19T10:38:51.055Z,44.80
2019-02-19T10:41:18.623Z,42.07
2019-02-19T10:44:02.800Z,41.13
2019-02-19T10:46:30.371Z,39.23
2019-02-19T10:48:57.904Z,36.33
2019-02-19T10:51:30.110Z,38.93
2019-02-19T10:54:20.968Z,43.17
2019-02-19T10:56:48.642Z,44.70
2019-02-19T10:59:16.803Z,41.90
2019-02-19T11:01:44.308Z,36.27
2019-02-19T11:04:11.832Z,36.97
2019-02-19T11:06:39.724Z,33.33
2019-02-19T11:09:07.221Z,34.23
2019-02-19T11:11:34.848Z,36.30
2019-02-19T11:14:02.335Z,38.00
2019-02-19T11:16:29.825Z,39.17
2019-02-19T11:18:57.323Z,33.30
2019-02-19T11:21:27.714Z,37.37
2019-02-19T11:23:58.450Z,36.73
2019-02-19T11:26:27.574Z,33.40
2019-02-19T11:28:55.282Z,34.90
2019-02-19T11:31:22.710Z,32.83
2019-02-19T11:33:51.386Z,32.43
2019-02-19T11:36:18.901Z,34.43
2019-02-19T11:38:46.471Z,38.90
2019-02-19T11:41:15.885Z,41.17
2019-02-19T11:43:43.319Z,38.90
2019-02-19T11:46:11.045Z,41.20
2019-02-19T11:48:38.505Z,38.87
2019-02-19T11:51:05.976Z,37.67
2019-02-19T11:53:33.485Z,36.63
2019-02-19T11:56:01.001Z,39.97
2019-02-19T11:58:28.558Z,34.80
2019-02-19T12:00:56.072Z,33.13
2019-02-19T12:03:23.560Z,35.17
2019-02-19T12:05:51.046Z,39.80
2019-02-19T12:08:18.528Z,39.93
2019-02-19T12:10:45.988Z,40.33
2019-02-19T12:13:13.452Z,42.37
2019-02-19T12:15:42.108Z,42.73
2019-02-19T12:18:09.640Z,41.40
2019-02-19T12:20:37.160Z,39.77
2019-02-19T12:23:04.592Z,45.23
2019-02-19T12:25:32.102Z,43.50
2019-02-19T12:28:00.962Z,43.23
2019-02-19T12:31:03.426Z,43.53
2019-02-19T12:34:07.504Z,44.37
2019-02-19T12:36:35.029Z,51.73
2019-02-19T12:39:02.625Z,43.00
2019-02-19T12:47:44.958Z,46.43
2019-02-19T12:50:26.158Z,48.87
2019-02-19T12:52:53.658Z,49.67
2019-02-19T12:55:22.252Z,43.97
2019-02-19T12:57:51.047Z,50.73
2019-02-19T13:00:19.000Z,43.00
2019-02-19T13:02:46.492Z,49.83
2019-02-19T13:05:14.889Z,45.53
2019-02-19T13:07:44.084Z,49.40
2019-02-19T13:10:14.207Z,42.93
2019-02-19T13:12:42.564Z,49.60
2019-02-19T13:15:11.424Z,43.53
2019-02-19T13:17:39.121Z,53.70
2019-02-19T13:20:08.286Z,48.60
2019-02-19T13:22:35.942Z,44.77
2019-02-19T13:25:03.639Z,48.50
2019-02-19T13:27:31.173Z,51.43
2019-02-19T13:29:58.887Z,52.10
2019-02-19T13:32:26.417Z,48.20
2019-02-19T13:34:54.051Z,52.23
2019-02-19T13:37:22.911Z,49.70
2019-02-19T13:39:50.467Z,50.93
2019-02-19T13:42:18.206Z,49.67
2019-02-19T13:44:45.738Z,50.70
2019-02-19T13:47:14.617Z,49.73
2019-02-19T13:49:42.326Z,46.57
2019-02-19T13:52:11.996Z,49.80
2019-02-19T13:54:40.814Z,46.70
2019-02-19T13:57:08.479Z,47.43
2019-02-19T13:59:35.998Z,49.57
2019-02-19T14:02:04.603Z,47.23
2019-02-19T14:04:32.561Z,46.13
2019-02-19T14:07:01.678Z,45.97
2019-02-19T14:09:31.775Z,46.70
2019-02-19T14:11:59.458Z,47.63
2019-02-19T14:14:28.499Z,45.57
2019-02-19T14:16:57.854Z,45.13
2019-02-19T14:19:27.472Z,42.80
2019-02-19T14:22:08.661Z,37.53
2019-02-19T14:24:50.928Z,45.63
2019-02-19T14:27:22.016Z,49.03
2019-02-19T14:29:56.664Z,46.77
2019-02-19T14:32:32.011Z,41.50
2019-02-19T14:35:31.257Z,48.67
2019-02-19T14:37:56.651Z,41.87
2019-02-19T14:40:32.811Z,44.87
2019-02-19T14:43:04.826Z,50.87
2019-02-19T14:48:36.237Z,46.27
2019-02-19T14:51:06.799Z,50.23
2019-02-19T14:53:38.394Z,53.50
2019-02-19T14:56:11.495Z,47.97
2019-02-19T14:58:40.700Z,48.90
2019-02-19T15:01:12.360Z,54.37
2019-02-19T15:03:59.770Z,52.13
2019-02-19T15:06:45.831Z,57.87
2019-02-19T15:09:32.897Z,50.53
2019-02-19T15:12:13.841Z,53.53
2019-02-19T15:14:45.691Z,56.07
2019-02-19T15:17:22.875Z,59.17
2019-02-19T15:20:04.049Z,60.07
2019-02-19T15:22:39.073Z,58.67
2019-02-19T15:25:09.471Z,62.17
2019-02-19T15:27:38.613Z,57.80
2019-02-19T15:30:08.796Z,57.57
2019-02-19T15:32:40.896Z,62.97
2019-02-19T15:35:26.988Z,57.43
2019-02-19T15:38:04.937Z,54.67
2019-02-19T15:40:39.137Z,58.03
2019-02-19T15:43:10.203Z,60.07
2019-02-19T15:45:56.290Z,58.70
2019-02-19T15:48:41.938Z,62.53
2019-02-19T15:51:27.741Z,65.27
2019-02-19T15:53:59.615Z,59.03
2019-02-19T15:56:45.353Z,66.43
2019-02-19T15:59:26.467Z,64.67
2019-02-19T16:01:55.631Z,67.53
2019-02-19T16:04:36.981Z,72.23
2019-02-19T16:07:09.183Z,79.20
2019-02-19T16:09:54.057Z,81.77
2019-02-19T16:12:24.006Z,76.10
2019-02-19T16:15:01.833Z,70.50
2019-02-19T16:17:31.034Z,63.80
2019-02-19T16:20:00.311Z,79.20
2019-02-19T16:22:30.215Z,75.97
2019-02-19T16:25:15.565Z,72.90
2019-02-19T16:28:01.500Z,77.73
2019-02-19T16:30:47.116Z,76.27
2019-02-19T16:33:32.983Z,81.77
2019-02-19T16:36:12.488Z,77.07
2019-02-19T16:39:20.059Z,84.43
2019-02-19T16:41:58.275Z,84.60
2019-02-19T16:44:28.494Z,85.53
2019-02-19T16:47:08.045Z,85.63
2019-02-19T16:49:42.980Z,90.40
2019-02-19T16:52:12.276Z,91.87
2019-02-19T16:54:41.590Z,93.33
2019-02-19T16:57:10.744Z,103.93
2019-02-19T16:59:54.836Z,106.93
2019-02-19T17:02:32.884Z,116.50
2019-02-19T17:05:02.346Z,119.47
2019-02-19T17:07:35.588Z,135.47
2019-02-19T17:10:07.095Z,148.27
2019-02-19T17:12:47.996Z,148.57
2019-02-19T17:15:16.958Z,125.17
2019-02-19T17:17:58.412Z,118.90
2019-02-19T17:20:29.529Z,131.57
2019-02-19T17:23:01.653Z,122.50
2019-02-19T17:25:33.263Z,114.77
2019-02-19T17:28:19.045Z,115.93
2019-02-19T17:31:04.593Z,104.73
2019-02-19T17:33:39.354Z,105.00
2019-02-19T17:36:08.479Z,97.23
2019-02-19T17:38:46.503Z,102.87
2019-02-19T17:41:24.667Z,95.83
2019-02-19T17:44:12.044Z,109.60
2019-02-19T17:46:47.124Z,104.33
2019-02-19T17:49:32.896Z,107.33
2019-02-19T17:52:07.502Z,110.03
2019-02-19T17:54:39.919Z,114.10
2019-02-19T17:57:18.001Z,107.93
2019-02-19T17:59:49.767Z,119.60
2019-02-19T18:02:19.383Z,108.73
2019-02-19T18:04:48.407Z,116.53
2019-02-19T18:07:17.598Z,115.53
2019-02-19T18:10:01.890Z,117.10
2019-02-19T18:12:31.088Z,112.00
2019-02-19T18:15:16.356Z,119.23
2019-02-19T18:17:45.495Z,119.20
2019-02-19T18:20:13.091Z,117.33
2019-02-19T18:22:40.612Z,111.70
2019-02-19T18:25:08.106Z,110.73
2019-02-19T18:27:36.919Z,104.43
2019-02-19T18:30:05.610Z,96.73
2019-02-19T18:32:33.282Z,101.63
2019-02-19T18:35:00.761Z,98.37
2019-02-19T18:37:28.237Z,107.17
2019-02-19T18:39:55.674Z,111.63
2019-02-19T18:42:23.031Z,109.87
2019-02-19T18:44:50.552Z,119.93
2019-02-19T18:47:18.022Z,111.77
2019-02-19T18:49:45.464Z,125.33
2019-02-19T18:52:12.858Z,122.10
2019-02-19T18:54:40.241Z,119.83
2019-02-19T18:57:07.800Z,125.43
2019-02-19T18:59:35.303Z,123.37
2019-02-19T19:02:02.824Z,132.93
2019-02-19T19:04:30.199Z,136.43
2019-02-19T19:06:57.533Z,128.90
2019-02-19T19:09:25.150Z,130.00
2019-02-19T19:11:52.631Z,131.90
2019-02-19T19:14:20.128Z,141.17
2019-02-19T19:16:48.098Z,145.03
2019-02-19T19:19:15.511Z,138.77
2019-02-19T19:21:42.940Z,151.13
2019-02-19T19:24:10.319Z,140.57
2019-02-19T19:26:37.758Z,125.87
2019-02-19T19:29:05.246Z,121.17
2019-02-19T19:31:33.918Z,122.23
2019-02-19T19:34:01.557Z,126.77
2019-02-19T19:36:28.994Z,113.77
2019-02-19T19:38:56.470Z,115.40
2019-02-19T19:41:24.029Z,110.63
2019-02-19T19:43:51.370Z,118.93
2019-02-19T19:46:18.848Z,115.30
2019-02-19T19:48:46.275Z,110.03
2019-02-19T19:51:17.442Z,104.77
2019-02-19T19:53:45.130Z,108.53
2019-02-19T19:56:12.536Z,112.43
2019-02-19T19:58:39.984Z,116.03
2019-02-19T20:01:07.365Z,129.83
2019-02-19T20:03:34.775Z,132.60
2019-02-19T20:06:02.244Z,131.83
2019-02-19T20:08:29.727Z,137.20
2019-02-19T20:10:57.143Z,135.83
2019-02-19T20:13:24.591Z,141.43
2019-02-19T20:15:52.151Z,136.30
2019-02-19T20:18:19.564Z,134.03
2019-02-19T20:20:46.909Z,125.90
2019-02-19T20:23:14.384Z,141.43
2019-02-19T20:25:41.896Z,135.70
2019-02-19T20:28:09.334Z,152.13
2019-02-19T20:30:36.775Z,151.83
2019-02-19T20:33:04.338Z,168.90
2019-02-19T20:35:31.918Z,159.73
2019-02-19T20:37:59.322Z,156.70
2019-02-19T20:40:26.768Z,157.33
2019-02-19T20:42:55.189Z,165.83
2019-02-19T20:45:22.689Z,148.60
2019-02-19T20:47:50.142Z,156.03
2019-02-19T20:50:17.504Z,144.57
2019-02-19T20:52:44.984Z,146.20
2019-02-19T20:55:12.547Z,142.97
2019-02-19T20:57:40.039Z,143.33
2019-02-19T21:00:12.518Z,130.70
2019-02-19T21:02:40.094Z,139.40
2019-02-19T21:05:08.809Z,124.40
2019-02-19T21:07:37.291Z,123.70
2019-02-19T21:10:06.406Z,116.57
2019-02-19T21:12:33.801Z,114.30
2019-02-19T21:15:01.267Z,111.80
2019-02-19T21:17:28.785Z,106.03
2019-02-19T21:19:56.163Z,117.30
2019-02-19T21:22:23.560Z,127.67
2019-02-19T21:24:50.973Z,145.83
2019-02-19T21:27:18.481Z,147.00
2019-02-19T21:29:46.510Z,129.87
2019-02-19T21:32:15.898Z,125.00
2019-02-19T21:34:43.335Z,110.67
2019-02-19T21:37:10.871Z,95.13
2019-02-19T21:39:38.385Z,100.57
2019-02-19T21:42:05.830Z,98.83
2019-02-19T21:44:33.226Z,83.80
2019-02-19T21:47:00.616Z,102.93
2019-02-19T21:49:28.073Z,85.83
2019-02-19T21:51:55.680Z,86.00
2019-02-19T21:54:23.133Z,83.83
2019-02-19T21:56:50.608Z,85.37
2019-02-19T21:59:17.948Z,88.53
2019-02-19T22:01:45.443Z,90.50
2019-02-19T22:04:12.937Z,86.40
2019-02-19T22:06:42.139Z,80.77
2019-02-19T22:09:09.623Z,84.40
2019-02-19T22:11:37.198Z,89.67
2019-02-19T22:14:04.814Z,101.37
2019-02-19T22:16:32.350Z,104.63
2019-02-19T22:18:59.789Z,106.03
2019-02-19T22:21:31.363Z,119.80
2019-02-19T22:23:58.825Z,124.57
2019-02-19T22:26:26.161Z,124.20
2019-02-19T22:28:53.684Z,119.90
2019-02-19T22:31:21.063Z,110.47
2019-02-19T22:33:48.532Z,107.57
2019-02-19T22:36:16.023Z,94.13
2019-02-19T22:38:43.414Z,101.17
2019-02-19T22:41:11.113Z,91.63
2019-02-19T22:43:38.527Z,99.87
2019-02-19T22:46:06.015Z,86.53
2019-02-19T22:48:33.476Z,88.27
2019-02-19T22:51:00.950Z,87.57
2019-02-19T22:53:41.635Z,86.53
2019-02-19T22:56:13.659Z,77.10
2019-02-19T22:58:43.049Z,78.13
2019-02-19T23:01:12.360Z,82.37
2019-02-19T23:03:41.320Z,72.63
2019-02-19T23:06:08.851Z,72.47
2019-02-19T23:08:36.282Z,65.30
2019-02-19T23:11:03.756Z,66.10
2019-02-19T23:13:31.260Z,63.97
2019-02-19T23:15:58.717Z,67.30
2019-02-19T23:18:26.218Z,62.60
2019-02-19T23:20:53.558Z,72.90
2019-02-19T23:23:21.013Z,71.27
2019-02-19T23:25:48.374Z,70.00
2019-02-19T23:28:15.729Z,74.40
2019-02-19T23:30:43.862Z,61.53
2019-02-19T23:33:11.239Z,71.93
2019-02-19T23:35:40.288Z,76.10
2019-02-19T23:38:07.711Z,67.93
2019-02-19T23:40:35.198Z,72.73
2019-02-19T23:43:02.637Z,64.83
2019-02-19T23:45:30.074Z,67.07
2019-02-19T23:47:57.518Z,60.77
2019-02-19T23:50:25.082Z,50.47
2019-02-19T23:52:52.661Z,51.93
2019-02-19T23:55:20.103Z,55.63
2019-02-19T23:57:47.618Z,60.40
